Time;durP1;ratioP1;P1;durP2;ratioP2;P2;SDS_P1;SDS_P2;PMS_P1;PMS_P2;Temp;Humidity;BMP_temperature;BMP_pressure;BME280_temperature;BME280_humidity;BME280_pressure;Samples;Min_cycle;Max_cycle;Signal;HPM_P1;HPM_P2
2022/09/15 00:01:02;;;;;;;41.53;30.93;;;13.20;1.00;;;;;;4980916;28;20292;-61
2022/09/15 00:03:29;;;;;;;29.83;23.00;;;13.30;25.30;;;;;;4999082;28;20710;-61
2022/09/15 00:05:56;;;;;;;30.03;24.97;;;13.40;99.90;;;;;;5006359;28;20227;-62
2022/09/15 00:08:23;;;;;;;24.67;19.23;;;13.40;84.90;;;;;;4989056;28;20612;-60
2022/09/15 00:10:54;;;;;;;24.97;17.90;;;13.50;90.10;;;;;;4989009;28;20708;-60
2022/09/15 00:13:22;;;;;;;27.23;22.50;;;13.40;1.00;;;;;;4987895;28;20328;-60
2022/09/15 00:15:49;;;;;;;31.37;24.00;;;13.30;1.00;;;;;;4988179;28;20296;-61
2022/09/15 00:18:16;;;;;;;40.10;31.13;;;13.40;1.00;;;;;;4989470;28;20712;-60
2022/09/15 00:20:45;;;;;;;25.97;20.57;;;13.50;1.00;;;;;;4977688;28;20201;-60
2022/09/15 00:23:13;;;;;;;28.07;22.37;;;13.70;1.00;;;;;;4988832;28;20258;-62
2022/09/15 00:25:51;;;;;;;33.13;28.27;;;13.80;1.00;;;;;;4988240;28;20190;-60
2022/09/15 00:28:20;;;;;;;31.10;26.37;;;13.70;1.00;;;;;;4988274;28;20197;-62
2022/09/15 00:30:51;;;;;;;23.80;18.43;;;13.70;99.90;;;;;;4987749;28;20305;-62
2022/09/15 00:33:19;;;;;;;22.57;18.83;;;13.80;99.90;;;;;;4987790;28;20202;-61
2022/09/15 00:35:49;;;;;;;19.30;16.47;;;13.70;99.90;;;;;;4971845;28;20205;-59
2022/09/15 00:38:17;;;;;;;27.57;24.63;;;13.70;99.90;;;;;;4988491;28;20229;-61
2022/09/15 00:40:50;;;;;;;26.90;22.67;;;13.60;99.90;;;;;;4977229;28;20561;-62
2022/09/15 00:43:19;;;;;;;24.83;18.17;;;13.60;99.90;;;;;;4987730;28;20825;-63
2022/09/15 00:45:47;;;;;;;28.40;21.73;;;13.60;26.70;;;;;;4987531;28;20204;-61
2022/09/15 00:48:19;;;;;;;24.60;17.73;;;13.60;48.50;;;;;;4988716;28;20552;-61
2022/09/15 00:50:52;;;;;;;23.47;19.40;;;13.60;21.70;;;;;;4987867;28;20205;-60
2022/09/15 00:53:19;;;;;;;26.43;18.13;;;13.70;49.00;;;;;;5003761;28;20205;-60
2022/09/15 00:55:48;;;;;;;19.93;17.07;;;13.60;1.00;;;;;;4987894;28;20206;-60
2022/09/15 00:58:24;;;;;;;28.67;18.90;;;13.50;1.00;;;;;;4987293;28;20698;-60
2022/09/15 01:00:55;;;;;;;22.93;18.73;;;13.60;38.80;;;;;;4962516;28;20207;-61
2022/09/15 01:03:24;;;;;;;25.03;17.73;;;13.70;99.90;;;;;;4970531;28;20186;-59
2022/09/15 01:05:59;;;;;;;24.17;20.33;;;13.70;1.00;;;;;;4986441;28;20277;-60
2022/09/15 01:08:45;;;;;;;28.87;18.83;;;13.60;1.00;;;;;;4984507;28;20690;-60
2022/09/15 01:11:15;;;;;;;27.30;18.40;;;13.60;1.00;;;;;;4987248;28;20197;-60
2022/09/15 01:13:43;;;;;;;22.17;18.23;;;13.50;1.00;;;;;;5005708;28;20645;-61
2022/09/15 01:16:44;;;;;;;26.93;19.07;;;13.60;1.00;;;;;;5007424;28;20287;-60
2022/09/15 01:19:39;;;;;;;27.90;19.80;;;13.30;1.00;;;;;;5021739;28;20245;-61
2022/09/15 01:22:43;;;;;;;26.23;19.93;;;13.20;47.60;;;;;;5006564;28;20601;-61
2022/09/15 01:25:25;;;;;;;30.43;21.50;;;13.10;99.90;;;;;;5006839;28;20212;-62
2022/09/15 01:28:15;;;;;;;34.90;22.57;;;13.00;99.90;;;;;;5006090;28;20276;-61
2022/09/15 01:30:52;;;;;;;26.93;20.57;;;12.80;99.90;;;;;;4992764;28;20189;-61
2022/09/15 01:33:30;;;;;;;28.53;20.07;;;12.80;1.00;;;;;;4988915;28;20636;-61
2022/09/15 01:36:09;;;;;;;26.90;19.47;;;12.60;1.00;;;;;;5007285;28;20189;-61
2022/09/15 01:38:53;;;;;;;33.30;23.57;;;12.50;1.00;;;;;;5004246;28;20778;-61
2022/09/15 01:41:32;;;;;;;29.83;22.23;;;12.60;1.00;;;;;;4981370;28;20209;-62
2022/09/15 01:44:09;;;;;;;33.37;22.13;;;12.60;91.50;;;;;;5003479;28;20705;-61
2022/09/15 01:46:45;;;;;;;33.27;22.80;;;12.50;99.90;;;;;;5005749;28;20192;-61
2022/09/15 01:49:23;;;;;;;28.73;19.73;;;12.50;99.90;;;;;;5004956;28;20284;-61
2022/09/15 01:51:52;;;;;;;38.33;21.87;;;12.40;99.90;;;;;;4965799;28;20554;-62
2022/09/15 01:54:23;;;;;;;29.80;20.17;;;12.40;99.90;;;;;;5004817;28;20193;-61
2022/09/15 01:56:51;;;;;;;34.00;21.40;;;12.40;1.00;;;;;;5005822;28;20189;-61
2022/09/15 01:59:18;;;;;;;33.70;22.47;;;12.40;1.00;;;;;;4989628;28;20196;-61
2022/09/15 02:02:02;;;;;;;22.83;15.77;;;12.30;1.00;;;;;;5006270;28;20225;-63
2022/09/15 02:04:47;;;;;;;43.70;24.03;;;12.30;1.00;;;;;;5021807;28;20291;-61
2022/09/15 02:07:25;;;;;;;30.77;21.33;;;12.40;1.00;;;;;;4997420;28;20731;-61
2022/09/15 02:10:01;;;;;;;32.83;21.07;;;12.30;1.00;;;;;;5007025;28;20256;-62
2022/09/15 02:12:38;;;;;;;30.83;20.60;;;12.20;1.00;;;;;;5004977;28;20594;-62
2022/09/15 02:15:13;;;;;;;31.03;21.33;;;12.20;1.00;;;;;;5005522;28;20610;-62
2022/09/15 02:17:45;;;;;;;37.77;23.30;;;12.10;88.90;;;;;;5003921;28;20238;-62
2022/09/15 02:20:31;;;;;;;36.80;23.80;;;12.10;99.90;;;;;;5003546;28;20533;-62
2022/09/15 02:23:07;;;;;;;35.53;22.50;;;12.10;99.90;;;;;;5003559;28;20200;-62
2022/09/15 02:25:40;;;;;;;36.93;22.13;;;12.10;99.90;;;;;;5005994;28;20219;-61
2022/09/15 02:28:10;;;;;;;35.80;23.80;;;12.10;99.90;;;;;;5004362;28;20224;-61
2022/09/15 02:30:40;;;;;;;39.40;23.43;;;12.10;99.90;;;;;;5005264;28;20204;-61
2022/09/15 02:33:13;;;;;;;39.60;23.93;;;12.10;1.00;;;;;;5006638;28;20694;-60
2022/09/15 02:35:41;;;;;;;39.27;23.70;;;12.10;1.00;;;;;;5005891;28;20645;-60
2022/09/15 02:38:09;;;;;;;44.77;26.23;;;12.10;1.00;;;;;;5006131;28;21117;-59
2022/09/15 02:40:40;;;;;;;44.37;26.57;;;12.10;1.00;;;;;;5005009;28;20193;-59
2022/09/15 02:43:13;;;;;;;40.97;25.43;;;12.10;1.00;;;;;;5004175;28;20204;-59
2022/09/15 02:45:39;;;;;;;37.40;24.23;;;12.20;1.00;;;;;;5005204;28;20197;-59
2022/09/15 02:48:08;;;;;;;45.77;25.00;;;12.20;1.00;;;;;;5004651;28;20193;-59
2022/09/15 02:50:37;;;;;;;44.30;25.87;;;12.30;1.00;;;;;;4986453;28;20213;-59
2022/09/15 02:53:04;;;;;;;47.63;28.30;;;12.30;1.00;;;;;;5003977;28;20241;-60
2022/09/15 02:55:32;;;;;;;45.27;27.73;;;12.40;1.00;;;;;;5008897;28;20200;-58
2022/09/15 02:57:59;;;;;;;53.07;27.87;;;12.40;1.00;;;;;;5006219;28;20204;-60
2022/09/15 03:00:27;;;;;;;52.30;28.07;;;12.40;1.00;;;;;;5005769;28;20240;-60
2022/09/15 03:02:54;;;;;;;51.07;29.10;;;12.40;1.00;;;;;;5007899;28;20193;-60
2022/09/15 03:05:25;;;;;;;46.33;27.93;;;12.50;1.00;;;;;;4974048;28;20209;-61
2022/09/15 03:07:53;;;;;;;54.17;28.90;;;12.50;1.00;;;;;;5006358;28;20409;-62
2022/09/15 03:10:21;;;;;;;50.53;28.63;;;12.80;1.00;;;;;;5009064;28;20193;-60
2022/09/15 03:12:50;;;;;;;38.50;24.80;;;12.80;99.90;;;;;;5004350;28;20312;-60
2022/09/15 03:15:20;;;;;;;41.03;25.23;;;12.90;99.90;;;;;;5021287;28;20699;-61
2022/09/15 03:17:47;;;;;;;29.43;18.67;;;12.90;1.00;;;;;;4999678;28;20217;-62
2022/09/15 03:20:18;;;;;;;30.27;19.30;;;13.10;1.00;;;;;;5008379;28;20288;-60
2022/09/15 03:22:46;;;;;;;37.33;23.27;;;13.10;1.00;;;;;;5009299;28;20197;-60
2022/09/15 03:25:13;;;;;;;39.97;24.13;;;13.10;99.90;;;;;;5008546;28;20196;-60
2022/09/15 03:27:41;;;;;;;32.73;21.50;;;13.10;99.90;;;;;;5006687;28;20208;-60
2022/09/15 03:30:09;;;;;;;28.67;20.27;;;13.00;1.00;;;;;;4979997;28;20566;-61
2022/09/15 03:32:36;;;;;;;25.13;17.23;;;13.10;2.40;;;;;;5009207;28;20284;-62
2022/09/15 03:35:05;;;;;;;25.37;16.70;;;13.20;27.50;;;;;;5007932;28;20201;-60
2022/09/15 03:37:32;;;;;;;33.63;22.10;;;13.40;99.90;;;;;;5023503;28;20205;-62
2022/09/15 03:39:59;;;;;;;25.30;18.30;;;13.50;1.00;;;;;;4991919;28;20200;-61
2022/09/15 03:42:26;;;;;;;26.23;18.90;;;13.40;1.00;;;;;;5008047;28;20185;-60
2022/09/15 03:44:53;;;;;;;23.50;17.27;;;13.40;1.00;;;;;;5005914;28;20203;-60
2022/09/15 03:47:20;;;;;;;22.73;16.67;;;13.50;1.00;;;;;;5009665;28;20208;-60
2022/09/15 03:49:47;;;;;;;26.57;17.47;;;13.60;99.90;;;;;;5006904;28;20219;-62
2022/09/15 03:52:14;;;;;;;19.70;16.13;;;13.50;99.90;;;;;;5008972;28;20303;-61
2022/09/15 03:54:41;;;;;;;18.00;14.83;;;13.50;99.90;;;;;;5007667;28;20470;-62
2022/09/15 03:57:08;;;;;;;24.77;17.17;;;13.60;47.10;;;;;;5004607;28;20195;-60
2022/09/15 03:59:35;;;;;;;22.57;15.87;;;13.50;1.00;;;;;;5005350;28;20221;-62
2022/09/15 04:02:01;;;;;;;15.63;13.73;;;13.60;91.50;;;;;;5007900;28;20189;-60
2022/09/15 04:04:28;;;;;;;19.80;16.27;;;13.90;1.00;;;;;;4988038;28;20696;-60
2022/09/15 04:06:55;;;;;;;30.73;26.17;;;14.10;1.00;;;;;;5006442;28;20642;-60
2022/09/15 04:09:22;;;;;;;22.53;19.83;;;14.30;99.90;;;;;;5008123;28;20252;-61
2022/09/15 04:11:49;;;;;;;38.60;28.67;;;14.30;1.00;;;;;;4984722;28;20493;-62
2022/09/15 04:14:16;;;;;;;34.55;27.25;;;14.40;1.00;;;;;;5003115;28;20619;-62
2022/09/15 04:16:43;;;;;;;24.00;19.05;;;14.40;99.90;;;;;;4999778;28;20208;-62
2022/09/15 04:19:10;;;;;;;18.27;15.02;;;14.40;99.90;;;;;;5000901;28;20272;-62
2022/09/15 04:21:37;;;;;;;20.43;15.73;;;14.30;1.00;;;;;;4988057;28;20220;-62
2022/09/15 04:24:04;;;;;;;22.83;16.53;;;14.10;99.90;;;;;;4988907;28;20204;-62
2022/09/15 04:26:34;;;;;;;22.83;18.25;;;14.20;1.00;;;;;;4979788;28;20232;-62
2022/09/15 04:29:03;;;;;;;26.13;22.00;;;14.20;99.90;;;;;;5006344;28;20807;-62
2022/09/15 04:31:32;;;;;;;32.90;26.20;;;14.30;99.90;;;;;;5003651;28;20196;-62
2022/09/15 04:33:59;;;;;;;34.83;26.53;;;14.20;99.90;;;;;;5004342;28;20715;-63
2022/09/15 04:36:27;;;;;;;24.30;19.60;;;14.20;99.90;;;;;;5022947;28;20208;-63
2022/09/15 04:38:55;;;;;;;20.23;16.48;;;14.40;99.90;;;;;;5007017;28;20237;-61
2022/09/15 04:41:24;;;;;;;20.00;17.65;;;14.40;81.30;;;;;;4988442;28;20192;-62
2022/09/15 04:43:51;;;;;;;20.80;16.60;;;14.60;20.10;;;;;;5004086;28;20746;-62
2022/09/15 04:46:19;;;;;;;24.75;21.77;;;14.60;1.00;;;;;;5003693;28;20185;-63
2022/09/15 04:48:47;;;;;;;22.38;18.20;;;14.50;1.00;;;;;;5006478;28;20205;-63
2022/09/15 04:51:18;;;;;;;21.92;19.50;;;14.50;1.00;;;;;;5007552;28;21110;-63
2022/09/15 04:53:45;;;;;;;20.42;16.98;;;14.50;1.00;;;;;;5006736;28;20192;-63
2022/09/15 04:56:17;;;;;;;23.17;20.67;;;14.40;1.00;;;;;;5006161;28;20185;-62
2022/09/15 04:58:56;;;;;;;29.95;26.13;;;14.40;99.90;;;;;;5008759;28;20299;-62
2022/09/15 05:01:31;;;;;;;31.48;26.95;;;14.40;99.90;;;;;;5004770;28;20184;-62
2022/09/15 05:04:02;;;;;;;20.85;17.25;;;14.50;1.70;;;;;;5005883;28;20193;-62
2022/09/15 05:06:29;;;;;;;30.05;26.90;;;14.20;99.90;;;;;;5007517;28;20208;-62
2022/09/15 05:08:57;;;;;;;20.98;16.92;;;14.20;99.90;;;;;;5004828;28;20746;-60
2022/09/15 05:11:25;;;;;;;29.03;24.47;;;14.20;99.90;;;;;;5006253;28;20208;-61
2022/09/15 05:13:52;;;;;;;23.65;17.75;;;14.10;1.00;;;;;;5004466;28;20562;-60
2022/09/15 05:16:24;;;;;;;23.02;16.52;;;14.20;1.00;;;;;;5005035;28;20225;-61
2022/09/15 05:18:54;;;;;;;19.77;17.23;;;14.10;1.00;;;;;;5001863;28;20211;-61
2022/09/15 05:21:22;;;;;;;25.47;19.33;;;14.00;1.00;;;;;;5005209;28;20241;-60
2022/09/15 05:23:52;;;;;;;25.17;20.87;;;13.90;1.00;;;;;;5005593;28;20224;-60
2022/09/15 05:26:23;;;;;;;21.83;17.97;;;13.90;58.30;;;;;;5006207;28;20271;-61
2022/09/15 05:28:50;;;;;;;22.87;18.90;;;14.10;1.00;;;;;;5001038;28;20201;-61
2022/09/15 05:31:26;;;;;;;25.10;17.80;;;13.90;1.00;;;;;;5003578;28;20645;-61
2022/09/15 05:33:53;;;;;;;19.97;16.57;;;14.00;1.00;;;;;;4986143;28;20195;-61
2022/09/15 05:36:23;;;;;;;23.77;18.67;;;14.10;1.00;;;;;;5005974;28;20668;-61
2022/09/15 05:38:55;;;;;;;24.07;19.03;;;14.10;1.00;;;;;;5003472;28;20263;-61
2022/09/15 05:41:23;;;;;;;27.13;22.23;;;14.30;1.00;;;;;;5006181;28;20203;-61
2022/09/15 05:43:52;;;;;;;30.20;23.42;;;14.20;1.00;;;;;;5002292;28;20204;-60
2022/09/15 05:46:19;;;;;;;23.33;18.40;;;14.40;1.00;;;;;;5002083;28;20201;-61
2022/09/15 05:48:46;;;;;;;26.85;22.60;;;14.40;99.90;;;;;;5017490;28;20216;-61
2022/09/15 05:51:14;;;;;;;25.70;19.83;;;14.60;99.90;;;;;;5019001;28;20193;-61
2022/09/15 05:53:41;;;;;;;22.70;17.50;;;14.80;99.90;;;;;;5002468;28;20563;-61
2022/09/15 05:56:13;;;;;;;19.35;15.90;;;14.90;1.00;;;;;;5019270;28;20752;-61
2022/09/15 05:58:41;;;;;;;24.67;15.02;;;15.10;1.00;;;;;;5007130;28;20396;-61
2022/09/15 06:01:12;;;;;;;19.38;14.23;;;15.30;1.00;;;;;;5004452;28;20196;-61
2022/09/15 06:03:39;;;;;;;17.95;14.15;;;15.60;99.90;;;;;;5002009;28;20204;-61
2022/09/15 06:06:06;;;;;;;15.70;14.00;;;15.80;1.00;;;;;;5004120;28;20197;-60
2022/09/15 06:08:39;;;;;;;18.10;13.05;;;15.90;1.00;;;;;;5006889;28;20203;-61
2022/09/15 06:11:14;;;;;;;17.45;12.25;;;15.80;1.00;;;;;;5006482;28;20229;-62
2022/09/15 06:13:42;;;;;;;15.10;13.27;;;15.90;1.00;;;;;;4979958;28;20237;-60
2022/09/15 06:16:15;;;;;;;17.40;13.55;;;16.00;1.00;;;;;;4986915;28;20208;-60
2022/09/15 06:18:43;;;;;;;17.40;14.05;;;16.00;1.00;;;;;;5013335;28;20617;-60
2022/09/15 06:21:12;;;;;;;17.73;12.85;;;15.90;1.00;;;;;;5004562;28;20224;-60
2022/09/15 06:23:40;;;;;;;18.92;13.23;;;15.90;1.00;;;;;;5019345;28;20203;-61
2022/09/15 06:26:16;;;;;;;16.90;13.07;;;15.90;1.00;;;;;;4972093;28;20714;-62
2022/09/15 06:28:54;;;;;;;14.32;11.98;;;15.80;1.00;;;;;;5019605;28;20548;-60
2022/09/15 06:31:21;;;;;;;15.10;13.02;;;15.90;1.00;;;;;;5007062;28;20275;-63
2022/09/15 06:33:50;;;;;;;13.73;12.15;;;16.00;1.00;;;;;;5000445;28;20193;-62
2022/09/15 06:36:19;;;;;;;14.50;12.55;;;16.10;1.00;;;;;;5008348;28;20190;-63
2022/09/15 06:38:47;;;;;;;16.10;12.60;;;16.40;1.00;;;;;;5005663;28;20324;-62
2022/09/15 06:41:15;;;;;;;14.73;11.38;;;16.40;1.00;;;;;;5007452;28;20316;-62
2022/09/15 06:43:42;;;;;;;17.52;12.25;;;16.50;1.00;;;;;;5023166;28;20661;-62
2022/09/15 06:46:14;;;;;;;17.17;11.25;;;16.50;1.00;;;;;;5000547;28;20201;-62
2022/09/15 06:48:41;;;;;;;14.60;11.23;;;16.70;99.90;;;;;;5006481;28;20260;-60
2022/09/15 06:51:15;;;;;;;12.88;10.63;;;16.90;99.90;;;;;;5005960;28;20284;-60
2022/09/15 06:53:43;;;;;;;12.13;10.50;;;16.90;99.90;;;;;;5023506;28;20205;-61
2022/09/15 06:56:13;;;;;;;12.70;10.55;;;17.10;99.90;;;;;;5009039;28;20196;-60
2022/09/15 06:58:41;;;;;;;12.35;9.90;;;16.90;99.90;;;;;;5008052;28;20213;-60
2022/09/15 07:01:11;;;;;;;16.85;9.73;;;17.00;99.90;;;;;;5006513;28;20551;-60
2022/09/15 07:03:41;;;;;;;12.80;10.45;;;16.90;99.90;;;;;;5002912;28;20197;-60
2022/09/15 07:06:10;;;;;;;15.13;12.05;;;17.00;99.90;;;;;;5005074;28;20189;-60
2022/09/15 07:08:38;;;;;;;17.23;13.35;;;17.20;99.90;;;;;;5002149;28;20200;-61
2022/09/15 07:11:06;;;;;;;14.98;11.63;;;17.10;99.90;;;;;;5007377;28;20209;-61
2022/09/15 07:13:34;;;;;;;21.42;14.80;;;17.10;50.40;;;;;;5007110;28;20750;-61
2022/09/15 07:16:02;;;;;;;13.88;11.73;;;17.20;63.60;;;;;;5005621;28;20296;-61
2022/09/15 07:18:31;;;;;;;12.90;11.43;;;17.30;10.40;;;;;;5003645;28;20204;-61
2022/09/15 07:21:10;;;;;;;14.43;10.10;;;17.40;1.00;;;;;;5006650;28;20212;-61
2022/09/15 07:23:37;;;;;;;17.33;10.45;;;17.20;1.00;;;;;;5021320;28;20197;-61
2022/09/15 07:26:10;;;;;;;16.25;11.52;;;17.00;99.90;;;;;;5006790;28;20185;-61
2022/09/15 07:28:38;;;;;;;13.95;9.02;;;17.00;99.90;;;;;;5002170;28;20205;-61
2022/09/15 07:31:06;;;;;;;9.15;7.93;;;17.10;63.10;;;;;;5007097;28;20688;-62
2022/09/15 07:33:34;;;;;;;14.77;8.65;;;17.10;99.70;;;;;;4987664;28;20648;-61
2022/09/15 07:36:02;;;;;;;22.52;15.00;;;17.30;1.00;;;;;;5004958;28;20208;-62
2022/09/15 07:38:29;;;;;;;33.85;20.60;;;17.30;1.00;;;;;;5002718;28;20618;-63
2022/09/15 07:41:10;;;;;;;23.45;16.40;;;17.60;1.00;;;;;;5018565;28;20278;-61
2022/09/15 07:43:38;;;;;;;19.17;13.05;;;17.70;1.00;;;;;;4990870;28;20764;-61
2022/09/15 07:46:05;;;;;;;16.33;10.25;;;17.80;1.00;;;;;;4993254;28;20581;-62
2022/09/15 07:48:32;;;;;;;20.33;13.57;;;17.70;1.00;;;;;;4997071;28;20275;-61
2022/09/15 07:50:59;;;;;;;20.23;12.45;;;17.80;1.00;;;;;;4989300;28;20190;-61
2022/09/15 07:53:28;;;;;;;22.13;14.55;;;17.80;1.00;;;;;;4992234;28;20200;-61
2022/09/15 07:55:55;;;;;;;23.55;17.65;;;17.60;1.00;;;;;;4997779;28;20253;-61
2022/09/15 07:58:23;;;;;;;19.70;14.60;;;17.60;1.00;;;;;;4992015;28;20263;-61
2022/09/15 08:00:50;;;;;;;19.30;16.00;;;17.70;1.00;;;;;;4989526;28;20220;-61
2022/09/15 08:03:17;;;;;;;9.88;7.13;;;17.70;1.00;;;;;;5001488;28;20197;-61
2022/09/15 08:05:45;;;;;;;10.77;6.70;;;17.60;1.00;;;;;;5004638;28;20281;-61
2022/09/15 08:08:12;;;;;;;16.13;12.25;;;17.50;1.00;;;;;;4998236;28;20321;-61
2022/09/15 08:10:40;;;;;;;16.38;13.80;;;17.40;1.00;;;;;;5001637;28;20206;-61
2022/09/15 08:13:07;;;;;;;12.18;9.02;;;17.60;1.00;;;;;;4995526;28;20703;-61
2022/09/15 08:15:36;;;;;;;14.30;10.93;;;17.90;1.00;;;;;;5002720;28;20620;-61
2022/09/15 08:18:04;;;;;;;12.63;9.10;;;18.20;1.00;;;;;;5003762;28;20209;-61
2022/09/15 08:20:32;;;;;;;13.05;9.27;;;18.30;1.00;;;;;;5004557;28;20229;-61
2022/09/15 08:22:59;;;;;;;17.65;12.75;;;18.50;1.00;;;;;;4999592;28;20648;-63
2022/09/15 08:25:26;;;;;;;14.43;9.48;;;18.50;1.00;;;;;;4988945;28;20214;-62
2022/09/15 08:27:55;;;;;;;13.75;9.32;;;18.40;1.00;;;;;;5001850;28;20597;-62
2022/09/15 08:30:22;;;;;;;14.63;9.73;;;18.40;1.00;;;;;;5005415;28;20277;-61
2022/09/15 08:32:49;;;;;;;14.02;9.07;;;18.30;1.00;;;;;;4986043;28;20207;-60
2022/09/15 08:35:17;;;;;;;12.57;9.23;;;18.00;1.00;;;;;;5002653;28;20197;-61
2022/09/15 08:37:45;;;;;;;11.57;8.50;;;18.00;1.00;;;;;;5000651;28;20214;-61
2022/09/15 08:40:19;;;;;;;11.85;7.22;;;18.40;1.00;;;;;;5002288;28;20215;-61
2022/09/15 08:42:49;;;;;;;17.92;14.02;;;18.30;1.00;;;;;;4985390;28;20196;-61
2022/09/15 08:45:23;;;;;;;10.50;8.30;;;18.50;1.00;;;;;;5002583;28;20216;-61
2022/09/15 08:47:57;;;;;;;17.13;13.15;;;18.60;1.00;;;;;;5003747;28;20220;-60
2022/09/15 08:50:34;;;;;;;15.55;11.90;;;18.80;1.00;;;;;;5006417;28;20268;-61
2022/09/15 08:53:08;;;;;;;15.48;9.80;;;19.10;1.00;;;;;;5004879;28;20200;-61
2022/09/15 08:56:04;;;;;;;15.23;9.82;;;19.40;99.90;;;;;;5003303;28;20650;-61
2022/09/15 08:58:36;;;;;;;10.70;7.10;;;19.70;99.90;;;;;;5002622;28;20197;-67
2022/09/15 09:01:09;;;;;;;10.45;6.47;;;19.70;99.90;;;;;;5004525;28;20687;-61
2022/09/15 09:03:53;;;;;;;14.07;6.75;;;20.10;99.90;;;;;;4998628;28;20271;-61
2022/09/15 09:06:43;;;;;;;12.60;5.65;;;20.10;99.90;;;;;;5001475;28;20277;-60
2022/09/15 09:09:27;;;;;;;11.40;5.05;;;20.50;99.90;;;;;;4959754;28;20217;-61
2022/09/15 09:12:05;;;;;;;8.15;4.68;;;20.70;99.90;;;;;;5002977;28;20744;-61
2022/09/15 09:14:38;;;;;;;8.57;4.93;;;21.20;97.60;;;;;;4990870;28;20220;-61
2022/09/15 09:17:48;;;;;;;8.75;4.70;;;21.20;76.00;;;;;;5006121;28;20399;-61
2022/09/15 09:20:18;;;;;;;7.13;3.97;;;21.40;63.20;;;;;;5002934;28;20208;-61
2022/09/15 09:22:48;;;;;;;7.75;3.60;;;21.00;61.70;;;;;;5019597;28;20205;-61
2022/09/15 09:25:18;;;;;;;8.48;4.10;;;20.70;80.70;;;;;;5006418;28;20224;-62
2022/09/15 09:27:57;;;;;;;8.13;3.65;;;20.60;75.70;;;;;;4998380;28;20212;-62
2022/09/15 09:30:28;;;;;;;8.63;3.88;;;20.60;72.20;;;;;;4999168;28;20202;-63
2022/09/15 09:33:25;;;;;;;6.47;4.18;;;20.50;78.00;;;;;;5004211;28;20212;-62
2022/09/15 09:35:53;;;;;;;8.68;3.88;;;20.60;64.90;;;;;;5001634;28;20213;-60
2022/09/15 09:38:33;;;;;;;6.13;3.20;;;20.30;62.90;;;;;;5001803;28;20205;-62
2022/09/15 09:41:03;;;;;;;6.60;3.03;;;20.40;75.40;;;;;;4985035;28;20246;-61
2022/09/15 09:43:31;;;;;;;5.93;2.50;;;20.60;44.60;;;;;;4969336;28;20191;-61
2022/09/15 09:45:58;;;;;;;6.18;3.15;;;20.60;37.30;;;;;;5005555;28;20194;-61
2022/09/15 09:48:26;;;;;;;5.97;2.53;;;20.60;40.20;;;;;;5001950;28;20228;-61
2022/09/15 09:50:54;;;;;;;6.88;2.25;;;20.70;11.40;;;;;;5004559;28;20213;-60
2022/09/15 09:53:32;;;;;;;8.93;2.50;;;21.10;15.50;;;;;;5002802;28;20200;-61
2022/09/15 09:56:23;;;;;;;7.53;2.10;;;21.00;14.90;;;;;;5005144;28;20204;-62
2022/09/15 09:58:51;;;;;;;10.77;5.13;;;20.80;9.80;;;;;;4999713;28;20664;-61
2022/09/15 10:01:22;;;;;;;11.70;5.13;;;20.70;12.70;;;;;;4999195;28;20216;-61
2022/09/15 10:04:18;;;;;;;9.80;5.35;;;20.70;7.90;;;;;;5021356;28;20559;-61
2022/09/15 10:06:45;;;;;;;8.80;5.55;;;20.80;8.20;;;;;;5008371;28;20201;-60
2022/09/15 10:09:16;;;;;;;12.32;4.53;;;21.30;3.40;;;;;;5005122;28;20224;-60
2022/09/15 10:11:46;;;;;;;12.18;5.97;;;21.50;1.00;;;;;;5003947;28;20217;-61
2022/09/15 10:14:34;;;;;;;8.40;4.38;;;21.80;1.00;;;;;;5010761;28;20192;-61
2022/09/15 10:17:17;;;;;;;7.65;3.10;;;22.30;1.00;;;;;;5010455;28;20189;-61
2022/09/15 10:20:31;;;;;;;10.15;3.80;;;22.50;1.00;;;;;;5010455;28;20586;-61
2022/09/15 10:23:16;;;;;;;9.02;2.58;;;23.30;1.00;;;;;;4998408;28;20741;-61
2022/09/15 10:25:44;;;;;;;5.63;2.30;;;22.90;1.00;;;;;;5012618;28;20184;-61
2022/09/15 10:28:26;;;;;;;5.85;2.25;;;23.50;1.00;;;;;;5008323;28;20615;-61
2022/09/15 10:30:56;;;;;;;9.27;2.30;;;23.70;1.00;;;;;;5010643;28;20215;-61
2022/09/15 10:33:25;;;;;;;7.60;2.33;;;23.60;1.00;;;;;;5006568;28;20212;-61
2022/09/15 10:35:58;;;;;;;5.47;1.85;;;23.00;1.00;;;;;;5005816;28;20209;-61
2022/09/15 10:38:41;;;;;;;13.27;2.53;;;22.30;1.00;;;;;;5008537;28;20192;-60
2022/09/15 10:41:20;;;;;;;6.90;2.00;;;21.80;1.00;;;;;;5012231;28;20647;-60
2022/09/15 10:44:00;;;;;;;5.30;1.52;;;20.60;1.00;;;;;;5009241;28;22987;-61
2022/09/15 10:46:37;;;;;;;4.05;1.40;;;20.70;1.00;;;;;;5010092;28;20200;-60
2022/09/15 10:49:14;;;;;;;3.72;1.40;;;20.90;1.00;;;;;;5008556;28;20197;-61
2022/09/15 10:52:11;;;;;;;6.82;1.33;;;20.60;1.00;;;;;;5005603;28;20219;-61
2022/09/15 10:54:39;;;;;;;4.15;1.15;;;21.30;1.00;;;;;;5010668;28;20184;-61
2022/09/15 10:57:24;;;;;;;6.30;1.20;;;21.60;1.00;;;;;;5006538;28;20201;-61
2022/09/15 11:00:08;;;;;;;7.85;1.20;;;21.20;1.00;;;;;;5009093;28;20228;-61
2022/09/15 11:03:13;;;;;;;1.80;0.80;;;20.90;1.00;;;;;;5011461;28;20239;-61
2022/09/15 11:05:58;;;;;;;5.32;1.42;;;20.60;1.00;;;;;;4965080;28;20204;-61
2022/09/15 11:08:35;;;;;;;3.22;1.20;;;20.60;1.00;;;;;;4971911;28;20208;-61
2022/09/15 11:11:20;;;;;;;4.07;2.10;;;20.30;1.00;;;;;;5006480;28;20201;-61
2022/09/15 11:14:16;;;;;;;6.10;4.47;;;20.30;1.00;;;;;;5004235;28;20240;-61
2022/09/15 11:16:54;;;;;;;9.55;4.07;;;20.30;1.00;;;;;;5008035;28;20288;-61
2022/09/15 11:19:31;;;;;;;6.70;5.13;;;20.00;1.00;;;;;;5006762;28;20300;-61
2022/09/15 11:22:11;;;;;;;5.85;4.13;;;20.20;1.00;;;;;;5005276;28;20197;-61
2022/09/15 11:24:46;;;;;;;6.05;2.35;;;20.00;1.00;;;;;;5006940;28;20199;-61
2022/09/15 11:27:52;;;;;;;7.32;5.47;;;19.90;1.00;;;;;;5006542;28;20200;-61
2022/09/15 11:30:28;;;;;;;10.00;7.75;;;20.30;1.00;;;;;;5003492;28;20263;-62
2022/09/15 11:33:05;;;;;;;15.82;10.80;;;20.70;1.00;;;;;;5007109;28;20200;-61
2022/09/15 11:35:35;;;;;;;10.20;7.05;;;20.80;1.00;;;;;;5008495;28;20286;-61
2022/09/15 11:38:33;;;;;;;10.07;6.85;;;20.90;1.00;;;;;;5005489;28;20568;-61
2022/09/15 11:41:27;;;;;;;6.70;5.50;;;21.40;1.00;;;;;;5002334;28;20220;-61
2022/09/15 11:44:06;;;;;;;5.55;3.42;;;21.40;1.00;;;;;;4999998;28;20288;-61
2022/09/15 11:47:00;;;;;;;9.90;1.92;;;22.50;1.00;;;;;;5007025;28;20193;-61
2022/09/15 11:49:49;;;;;;;2.85;1.92;;;22.00;1.00;;;;;;4975673;28;20732;-61
2022/09/15 11:52:21;;;;;;;4.03;1.40;;;21.40;1.00;;;;;;5020712;28;20679;-61
2022/09/15 11:54:55;;;;;;;4.63;2.08;;;22.20;1.00;;;;;;5006744;28;20193;-61
2022/09/15 11:57:37;;;;;;;4.68;1.73;;;23.50;1.00;;;;;;5006376;28;20682;-61
2022/09/15 12:00:11;;;;;;;5.40;1.60;;;24.40;1.00;;;;;;5003296;28;20223;-62
2022/09/15 12:02:48;;;;;;;4.18;1.42;;;25.50;1.00;;;;;;5019128;28;20197;-61
2022/09/15 12:05:38;;;;;;;2.20;1.17;;;24.80;1.00;;;;;;5007197;28;20662;-61
2022/09/15 12:08:17;;;;;;;2.88;1.38;;;24.00;1.00;;;;;;5005129;28;20555;-61
2022/09/15 12:10:53;;;;;;;7.25;1.45;;;24.00;1.00;;;;;;5007556;28;20189;-61
2022/09/15 12:13:23;;;;;;;3.28;1.50;;;23.90;1.00;;;;;;5005448;28;20614;-61
2022/09/15 12:15:51;;;;;;;5.05;1.52;;;22.90;1.00;;;;;;5001181;28;20205;-61
2022/09/15 12:18:30;;;;;;;4.15;1.20;;;22.70;1.00;;;;;;5000702;28;20204;-61
2022/09/15 12:21:44;;;;;;;2.55;1.00;;;22.60;1.00;;;;;;4994814;28;20913;-62
2022/09/15 12:24:29;;;;;;;2.45;1.20;;;22.60;1.00;;;;;;4984146;28;20196;-61
2022/09/15 12:26:59;;;;;;;1.90;1.05;;;22.80;1.00;;;;;;5003210;28;20895;-61
2022/09/15 12:29:26;;;;;;;3.13;1.10;;;22.70;1.00;;;;;;5003117;28;20271;-61
2022/09/15 12:32:29;;;;;;;3.95;1.45;;;22.30;1.00;;;;;;5003592;28;20299;-61
2022/09/15 12:35:22;;;;;;;2.33;1.08;;;22.00;1.00;;;;;;5004181;28;20232;-60
2022/09/15 12:37:59;;;;;;;5.35;1.40;;;21.40;1.00;;;;;;4996128;28;20713;-60
2022/09/15 12:40:29;;;;;;;3.90;1.30;;;20.70;1.00;;;;;;5017297;28;20264;-62
2022/09/15 12:42:56;;;;;;;4.82;1.52;;;20.40;1.00;;;;;;5003034;28;20675;-62
2022/09/15 12:45:29;;;;;;;6.28;1.30;;;20.00;1.00;;;;;;5005129;28;20199;-62
2022/09/15 12:48:02;;;;;;;4.72;1.63;;;19.80;1.00;;;;;;5002113;28;20235;-62
2022/09/15 12:50:38;;;;;;;5.65;3.33;;;19.60;1.00;;;;;;4996492;28;20513;-62
2022/09/15 12:53:46;;;;;;;9.80;5.30;;;19.20;1.40;;;;;;4989403;28;20715;-63
2022/09/15 12:56:25;;;;;;;7.88;5.55;;;19.10;39.50;;;;;;4960258;28;20224;-62
2022/09/15 12:58:53;;;;;;;10.10;5.95;;;19.00;64.90;;;;;;4998382;28;20304;-60
2022/09/15 13:01:25;;;;;;;9.00;3.53;;;19.10;44.30;;;;;;5004182;28;20228;-61
2022/09/15 13:03:53;;;;;;;5.07;3.70;;;19.20;41.20;;;;;;4994882;28;20576;-60
2022/09/15 13:06:21;;;;;;;6.20;3.97;;;19.40;19.30;;;;;;4992040;28;20202;-60
2022/09/15 13:08:49;;;;;;;5.63;3.15;;;19.50;5.50;;;;;;4987769;28;20197;-60
2022/09/15 13:11:16;;;;;;;4.85;2.78;;;19.50;5.60;;;;;;4998635;28;20201;-61